Angwin, CA

7:10 PM PST on March 02, 2015 (GMT -0800)
Las Posadas | Change Station
CLOSE
Current Station
Personal Weather Station
Location: Angwin, CA
Elevation: 1706 ft
Nearby Weather Stations

Elev 1706 ft 38.56 °N, 122.42 °W | Updated 58 minutes ago

Partly Cloudy
Partly Cloudy
47.5 °F
Feels Like 48 °F
N
0.0
Wind Variable Wind from NNE
Gusts 0.0 mph

Today
High -- | Low -- °F
--% Chance of Precip.
Yesterday
High -- | Low -- °F
Precip. -- in
6:40 AM 6:03 PM
Waxing Gibbous, 94% visible
Pressure 29.86 in
Visibility 10.0 miles
Clouds Scattered Clouds 5000 ft
Windchill 48 °F
Dew Point 40 °F
Humidity 75%
Rainfall 0.00 in
Snow Depth Not available.
UV 0 out of 12
Pollen 8.00 out of 12
Air Quality Not available.
Flu Activity Not available.
METAR KSTS 030253Z 00000KT 10SM SCT050 11/04 A2987 RMK AO2 SLP110 T01110044 53023

More Conditions Fewer Conditions

Pressure 29.86 in
Visibility 10.0 miles
Clouds Scattered Clouds 5000 ft
Windchill 48 °F
Dew Point 40 °F
Humidity 75%
Rainfall 0.00 in
Snow Depth Not available.
UV 0 out of 12
Pollen 8.00 out of 12
Air Quality Not available.
Flu Activity Not available.
METAR KSTS 030253Z 00000KT 10SM SCT050 11/04 A2987 RMK AO2 SLP110 T01110044 53023

More Conditions Fewer Conditions

10-Day Weather Forecast

Almanac

Astronomy

Mar. 02, 2015 Rise Set
Actual Time
Civil Twilight
Nautical Twilight
Astronomical Twilight
Moon
Length of Visible Light
Length of Day
Tomorrow will be .
, % of the Moon is Illuminated

Today's Extremes

State Highs State Lows

Community

WunderPhotos

Upload Photos

1,802,057 photos uploaded!

WunderBlogs® & News

Nearby

Air Quality

  Air Quality AQ Index Pollutant
Not available.

Snow Depth

Station Depth Elevation

Earthquake Activity

City Distance Mag. Time & Date
Minimum magnitude displayed is 2.5.

Coastal Water Temperatures

Place Temperature

Nearby Weather Stations